Time;durP1;ratioP1;P1;durP2;ratioP2;P2;SDS_P1;SDS_P2;PMS_P1;PMS_P2;Temp;Humidity;BMP_temperature;BMP_pressure;BME280_temperature;BME280_humidity;BME280_pressure;Samples;Min_cycle;Max_cycle;Signal;HPM_P1;HPM_P2
2021/12/07 00:01:42;;;;;;;3.15;1.08;;;17.00;45.30;;;;;;5117373;28;20011;-60
2021/12/07 00:04:08;;;;;;;1.45;1.00;;;17.00;45.30;;;;;;5099220;28;20022;-60
2021/12/07 00:06:35;;;;;;;2.00;1.10;;;17.00;45.30;;;;;;5117510;28;20088;-59
2021/12/07 00:09:02;;;;;;;3.95;1.10;;;17.00;45.30;;;;;;5117011;28;20028;-60
2021/12/07 00:11:29;;;;;;;0.95;0.82;;;17.00;45.30;;;;;;5117405;28;20086;-60
2021/12/07 00:13:57;;;;;;;2.80;1.20;;;17.00;45.30;;;;;;5117123;28;20596;-60
2021/12/07 00:16:23;;;;;;;1.25;1.00;;;17.00;45.30;;;;;;5117584;28;20027;-60
2021/12/07 00:18:49;;;;;;;2.00;1.10;;;17.00;45.30;;;;;;5117418;28;20474;-60
2021/12/07 00:21:17;;;;;;;1.73;0.88;;;17.00;45.40;;;;;;5116865;28;20031;-59
2021/12/07 00:23:42;;;;;;;1.65;1.00;;;17.00;45.40;;;;;;5116933;28;20019;-60
2021/12/07 00:26:10;;;;;;;2.10;1.00;;;17.00;45.40;;;;;;5099570;28;20069;-60
2021/12/07 00:28:36;;;;;;;2.00;1.20;;;17.00;45.50;;;;;;5117285;28;20031;-60
2021/12/07 00:31:11;;;;;;;1.88;0.98;;;16.90;45.40;;;;;;5117210;28;20030;-60
2021/12/07 00:33:50;;;;;;;1.58;0.73;;;16.90;45.40;;;;;;5116768;28;20073;-61
2021/12/07 00:36:15;;;;;;;1.90;1.10;;;16.90;45.40;;;;;;5116877;28;20054;-60
2021/12/07 00:38:41;;;;;;;1.52;1.10;;;16.90;45.40;;;;;;5116761;28;20397;-60
2021/12/07 00:41:07;;;;;;;1.70;1.08;;;16.90;45.40;;;;;;5116594;28;20012;-60
2021/12/07 00:43:34;;;;;;;1.70;1.15;;;16.90;45.40;;;;;;5116675;28;20028;-60
2021/12/07 00:46:01;;;;;;;0.80;0.77;;;16.90;45.40;;;;;;5098243;28;20099;-60
2021/12/07 00:48:28;;;;;;;1.48;1.10;;;16.90;45.50;;;;;;5116352;28;20552;-60
2021/12/07 00:50:57;;;;;;;0.95;0.70;;;16.90;45.50;;;;;;5098758;28;20024;-60
2021/12/07 00:53:23;;;;;;;1.17;0.95;;;16.90;45.50;;;;;;5116430;28;20039;-60
2021/12/07 00:55:50;;;;;;;1.85;1.02;;;16.90;45.50;;;;;;5097985;28;20469;-60
2021/12/07 00:58:22;;;;;;;1.65;1.00;;;16.90;45.50;;;;;;5116527;28;20022;-60
2021/12/07 01:00:54;;;;;;;1.67;1.00;;;16.90;45.50;;;;;;5116444;28;20035;-60
2021/12/07 01:03:20;;;;;;;0.98;0.80;;;16.90;45.60;;;;;;5116073;28;20043;-60
2021/12/07 01:05:51;;;;;;;2.30;0.90;;;16.80;45.50;;;;;;5097691;28;20020;-60
2021/12/07 01:24:45;;;;;;;1.88;1.10;;;16.90;46.20;;;;;;5115586;28;20073;-60
2021/12/07 01:27:14;;;;;;;1.40;0.73;;;16.80;45.70;;;;;;5115144;28;20024;-60
2021/12/07 01:29:45;;;;;;;2.00;1.00;;;16.80;45.80;;;;;;5096903;28;20012;-60
2021/12/07 01:37:58;;;;;;;1.67;1.00;;;16.80;45.70;;;;;;5085199;28;20098;-60
2021/12/07 01:43:29;;;;;;;2.30;1.23;;;16.80;45.80;;;;;;5115215;28;20019;-60
2021/12/07 01:59:50;;;;;;;2.28;0.93;;;16.70;45.90;;;;;;5114743;28;20018;-60
2021/12/07 02:02:18;;;;;;;1.25;0.82;;;16.70;45.90;;;;;;5114704;28;20103;-60
2021/12/07 02:04:44;;;;;;;1.58;0.93;;;16.70;45.90;;;;;;5096108;28;20092;-60
2021/12/07 02:07:10;;;;;;;1.10;0.80;;;16.70;45.90;;;;;;5113868;28;20089;-59
2021/12/07 02:09:38;;;;;;;1.10;0.80;;;16.70;45.90;;;;;;5114418;28;20048;-60
2021/12/07 02:12:06;;;;;;;1.48;0.80;;;16.70;46.50;;;;;;5096492;28;20015;-60
2021/12/07 02:14:32;;;;;;;2.95;1.00;;;16.70;46.00;;;;;;5114233;28;20015;-62
2021/12/07 02:17:09;;;;;;;1.73;1.00;;;16.70;46.00;;;;;;5114218;28;20095;-60
2021/12/07 02:19:35;;;;;;;2.30;1.17;;;16.70;46.00;;;;;;5114149;28;20461;-60
2021/12/07 02:22:02;;;;;;;1.67;0.90;;;16.70;46.20;;;;;;5114265;28;20016;-60
2021/12/07 02:24:28;;;;;;;1.77;0.88;;;16.70;46.00;;;;;;5114219;28;20019;-60
2021/12/07 02:26:54;;;;;;;1.77;1.08;;;16.60;46.00;;;;;;5114327;28;20028;-60
2021/12/07 02:29:20;;;;;;;1.40;0.77;;;16.60;46.00;;;;;;5114271;28;20042;-59
2021/12/07 02:31:49;;;;;;;1.48;0.98;;;16.70;46.10;;;;;;5114421;28;20019;-60
2021/12/07 02:34:15;;;;;;;1.48;0.80;;;16.60;46.00;;;;;;5114096;28;20704;-59
2021/12/07 02:36:42;;;;;;;1.50;1.00;;;16.60;46.00;;;;;;5114056;28;20094;-59
2021/12/07 02:39:08;;;;;;;3.22;0.93;;;16.60;46.10;;;;;;5114019;28;20046;-59
2021/12/07 02:41:35;;;;;;;1.40;0.90;;;16.70;46.10;;;;;;5114122;28;20015;-59
2021/12/07 02:44:02;;;;;;;2.00;1.10;;;16.60;46.10;;;;;;5113993;28;20011;-59
2021/12/07 02:46:28;;;;;;;2.10;1.00;;;16.60;46.10;;;;;;5113834;28;20023;-59
2021/12/07 02:48:57;;;;;;;1.48;0.93;;;16.60;46.10;;;;;;5113990;28;20028;-59
2021/12/07 02:51:23;;;;;;;1.40;0.90;;;16.60;46.10;;;;;;5113791;28;20095;-59
2021/12/07 02:53:49;;;;;;;2.20;1.13;;;16.60;46.20;;;;;;5113985;28;20023;-59
2021/12/07 02:56:16;;;;;;;0.95;0.70;;;16.60;46.10;;;;;;5113929;28;20106;-59
2021/12/07 02:58:44;;;;;;;2.08;1.15;;;16.60;46.10;;;;;;5113810;28;20082;-59
2021/12/07 03:01:16;;;;;;;1.50;0.88;;;16.60;46.20;;;;;;5096164;28;20065;-59
2021/12/07 03:03:59;;;;;;;0.82;0.80;;;16.60;46.20;;;;;;5113700;28;20043;-59
2021/12/07 03:06:40;;;;;;;1.42;0.80;;;16.60;46.20;;;;;;5113634;28;20065;-59
2021/12/07 03:28:00;;;;;;;1.40;0.95;;;16.80;45.40;;;;;;5097342;28;20050;-61
2021/12/07 03:30:44;;;;;;;1.63;0.80;;;16.80;45.50;;;;;;5096786;28;20470;-60
2021/12/07 03:33:11;;;;;;;1.95;0.60;;;16.90;45.40;;;;;;5096823;28;20028;-60
2021/12/07 03:35:37;;;;;;;1.50;0.80;;;17.00;45.30;;;;;;5097104;28;20485;-60
2021/12/07 03:38:04;;;;;;;1.10;0.77;;;17.10;45.10;;;;;;5095679;28;20024;-61
2021/12/07 03:40:32;;;;;;;1.08;0.77;;;17.10;44.90;;;;;;5096761;28;20031;-61
2021/12/07 03:42:58;;;;;;;1.20;0.68;;;17.20;44.80;;;;;;5096995;28;20020;-61
2021/12/07 03:45:24;;;;;;;1.70;0.93;;;17.30;44.50;;;;;;5096811;28;20016;-61
2021/12/07 03:47:50;;;;;;;1.48;0.80;;;17.40;44.30;;;;;;5096826;28;20351;-61
2021/12/07 03:50:16;;;;;;;3.45;0.90;;;17.50;44.10;;;;;;5096835;28;20021;-59
2021/12/07 03:52:42;;;;;;;1.52;0.82;;;17.60;44.00;;;;;;5095182;28;20039;-59
2021/12/07 03:55:08;;;;;;;1.20;0.90;;;17.60;43.80;;;;;;5096469;28;20091;-61
2021/12/07 03:57:34;;;;;;;2.25;1.00;;;17.70;43.70;;;;;;5096567;28;20504;-59
2021/12/07 04:00:00;;;;;;;0.93;0.80;;;17.80;43.60;;;;;;5096484;28;20087;-58
2021/12/07 04:02:27;;;;;;;2.20;0.85;;;17.90;43.40;;;;;;5096578;28;20016;-59
2021/12/07 04:04:59;;;;;;;1.35;0.70;;;18.00;43.30;;;;;;5096632;28;20013;-61
2021/12/07 04:07:25;;;;;;;2.80;0.60;;;18.10;43.00;;;;;;5101441;28;20058;-59
2021/12/07 04:09:51;;;;;;;1.40;0.70;;;18.10;42.90;;;;;;5098634;28;20724;-59
2021/12/07 04:12:17;;;;;;;1.98;1.05;;;18.20;42.70;;;;;;5098531;28;20032;-62
2021/12/07 04:14:42;;;;;;;1.88;1.00;;;18.30;42.70;;;;;;5116928;28;20051;-61
2021/12/07 04:17:09;;;;;;;1.77;0.77;;;18.40;42.50;;;;;;5117004;28;20016;-61
2021/12/07 04:19:34;;;;;;;0.80;0.77;;;18.40;42.40;;;;;;5098448;28;20040;-61
2021/12/07 04:22:00;;;;;;;1.05;0.75;;;18.50;42.20;;;;;;5098527;28;20004;-61
2021/12/07 04:24:27;;;;;;;1.35;0.95;;;18.60;42.10;;;;;;5116825;28;20034;-61
2021/12/07 04:26:56;;;;;;;4.95;1.00;;;18.70;42.00;;;;;;5116914;28;20496;-61
2021/12/07 04:29:24;;;;;;;1.13;0.80;;;18.70;41.80;;;;;;5116564;28;20465;-60
2021/12/07 04:31:51;;;;;;;0.93;0.70;;;18.80;41.70;;;;;;5115904;28;20064;-61
2021/12/07 04:34:16;;;;;;;1.50;0.73;;;18.80;41.60;;;;;;5081350;28;20040;-60
2021/12/07 04:36:42;;;;;;;1.55;0.90;;;19.00;41.50;;;;;;5116811;28;20016;-61
2021/12/07 04:39:09;;;;;;;1.73;0.82;;;19.00;41.40;;;;;;5116741;28;20016;-61
2021/12/07 04:41:35;;;;;;;0.82;0.77;;;19.10;41.20;;;;;;5116530;28;20012;-61
2021/12/07 04:44:03;;;;;;;1.25;0.73;;;19.10;41.10;;;;;;5098401;28;20103;-61
2021/12/07 04:46:38;;;;;;;1.05;0.70;;;19.20;41.00;;;;;;5116276;28;20016;-61
2021/12/07 04:59:49;;;;;;;1.00;0.60;;;19.50;40.50;;;;;;5116840;28;20026;-61
2021/12/07 05:02:22;;;;;;;1.20;0.75;;;19.60;40.50;;;;;;5115868;28;20016;-61
2021/12/07 05:04:48;;;;;;;3.90;0.80;;;19.60;40.30;;;;;;5098057;28;20027;-61
2021/12/07 05:07:26;;;;;;;2.15;0.85;;;19.70;40.20;;;;;;5115835;28;20063;-61
2021/12/07 05:10:12;;;;;;;1.27;0.80;;;19.70;40.10;;;;;;5116257;28;20015;-61
2021/12/07 05:16:23;;;;;;;3.53;0.70;;;19.90;40.10;;;;;;5115890;28;20109;-61
2021/12/07 05:18:41;;;;;;;1.83;0.73;;;19.90;39.90;;;;;;5107943;28;20016;-61
2021/12/07 05:23:56;;;;;;;2.45;0.85;;;20.10;39.70;;;;;;5115885;28;20526;-61
2021/12/07 05:39:50;;;;;;;1.35;0.80;;;20.30;39.20;;;;;;5114872;28;20054;-59
2021/12/07 05:42:17;;;;;;;1.73;1.00;;;20.40;39.20;;;;;;5114236;28;20027;-62
2021/12/07 05:44:43;;;;;;;0.90;0.70;;;20.50;39.20;;;;;;5114869;28;20012;-62
2021/12/07 05:47:09;;;;;;;1.35;0.80;;;20.50;39.00;;;;;;5115209;28;20023;-59
2021/12/07 05:49:35;;;;;;;1.58;0.80;;;20.50;38.90;;;;;;5079914;28;20406;-61
2021/12/07 05:52:01;;;;;;;1.17;0.75;;;20.60;38.90;;;;;;5114718;28;20514;-61
2021/12/07 05:54:28;;;;;;;1.27;0.80;;;20.60;38.80;;;;;;5114557;28;20093;-61
2021/12/07 05:56:55;;;;;;;1.67;0.70;;;20.70;38.80;;;;;;5114495;28;20028;-61
2021/12/07 05:59:21;;;;;;;1.83;0.70;;;20.70;38.70;;;;;;5114688;28;20022;-61
2021/12/07 06:01:48;;;;;;;1.73;0.70;;;20.70;38.70;;;;;;5114977;28;20016;-61
2021/12/07 06:04:14;;;;;;;1.02;0.80;;;20.80;38.60;;;;;;5115073;28;20062;-61
2021/12/07 06:06:40;;;;;;;1.48;0.90;;;20.90;38.60;;;;;;5114847;28;20094;-61
2021/12/07 06:09:07;;;;;;;1.33;0.90;;;20.90;38.50;;;;;;5114357;28;20115;-61
2021/12/07 06:11:32;;;;;;;1.05;0.70;;;21.00;38.50;;;;;;5114194;28;20560;-61
2021/12/07 06:13:59;;;;;;;2.10;0.90;;;21.00;38.40;;;;;;5114054;28;20034;-61
2021/12/07 06:16:29;;;;;;;1.25;0.70;;;21.00;38.40;;;;;;5114388;28;20020;-61
2021/12/07 06:18:55;;;;;;;0.70;0.50;;;21.10;38.30;;;;;;5096772;28;20504;-61
2021/12/07 06:21:21;;;;;;;0.98;0.70;;;21.10;38.30;;;;;;5114477;28;20094;-61
2021/12/07 06:23:46;;;;;;;1.35;0.70;;;21.10;38.20;;;;;;5096084;28;20020;-62
2021/12/07 06:26:12;;;;;;;1.45;0.80;;;21.20;38.20;;;;;;5096130;28;20465;-61
2021/12/07 06:28:38;;;;;;;1.10;0.82;;;21.20;38.10;;;;;;5114609;28;20053;-61
2021/12/07 06:31:04;;;;;;;2.30;0.98;;;21.30;38.10;;;;;;5115375;28;20464;-61
2021/12/07 06:33:30;;;;;;;1.27;0.57;;;21.30;38.00;;;;;;5115766;28;20032;-61
2021/12/07 06:35:58;;;;;;;1.05;0.73;;;21.40;38.00;;;;;;5115236;28;20484;-61
2021/12/07 06:38:27;;;;;;;0.85;0.60;;;21.40;38.00;;;;;;5114854;28;20051;-61
2021/12/07 06:40:54;;;;;;;0.95;0.73;;;21.40;37.90;;;;;;5114418;28;20012;-62
2021/12/07 06:43:21;;;;;;;1.77;0.75;;;21.40;37.90;;;;;;5078992;28;20015;-61
2021/12/07 06:45:47;;;;;;;1.08;0.77;;;21.50;37.90;;;;;;5095914;28;20028;-61
2021/12/07 06:48:12;;;;;;;1.27;0.68;;;21.50;37.80;;;;;;5113620;28;20351;-61
2021/12/07 06:50:39;;;;;;;0.95;0.70;;;21.50;37.80;;;;;;5113471;28;20027;-61
2021/12/07 06:53:05;;;;;;;1.05;0.73;;;21.60;37.80;;;;;;5113249;28;20055;-61
2021/12/07 06:55:31;;;;;;;1.33;0.70;;;21.60;37.80;;;;;;5112990;28;20035;-61
2021/12/07 06:57:57;;;;;;;1.42;0.73;;;21.60;37.70;;;;;;5113180;28;20041;-61
2021/12/07 07:00:23;;;;;;;0.90;0.60;;;21.70;37.80;;;;;;5112756;28;20020;-61
2021/12/07 07:02:51;;;;;;;1.23;0.85;;;21.70;37.70;;;;;;5112786;28;20411;-62
2021/12/07 07:05:17;;;;;;;0.60;0.57;;;21.70;37.70;;;;;;5112387;28;20469;-61
2021/12/07 07:07:43;;;;;;;1.27;0.70;;;21.70;37.70;;;;;;5077294;28;20074;-61
2021/12/07 07:10:11;;;;;;;1.20;0.70;;;21.80;37.70;;;;;;5094129;28;20020;-61
2021/12/07 07:12:37;;;;;;;2.22;0.70;;;21.80;37.70;;;;;;5112488;28;20020;-61
2021/12/07 07:15:04;;;;;;;2.00;0.93;;;21.90;37.60;;;;;;5112673;28;20099;-61
2021/12/07 07:17:30;;;;;;;0.82;0.60;;;21.90;37.60;;;;;;5093985;28;20056;-61
2021/12/07 07:19:56;;;;;;;1.02;0.63;;;21.90;37.60;;;;;;5111547;28;20031;-61
2021/12/07 07:22:22;;;;;;;0.93;0.70;;;22.00;37.50;;;;;;5111552;28;20039;-61
2021/12/07 07:24:48;;;;;;;2.47;0.77;;;22.00;37.50;;;;;;5111479;28;20023;-61
2021/12/07 07:27:15;;;;;;;1.38;0.90;;;22.00;37.50;;;;;;5110906;28;20047;-61
2021/12/07 07:29:42;;;;;;;0.95;0.60;;;22.00;37.50;;;;;;5111081;28;20153;-61
2021/12/07 07:32:09;;;;;;;0.88;0.68;;;22.10;37.60;;;;;;5092581;28;20026;-59
2021/12/07 07:34:37;;;;;;;0.88;0.55;;;22.10;37.60;;;;;;5110856;28;20041;-63
2021/12/07 07:37:04;;;;;;;0.88;0.65;;;22.10;37.50;;;;;;5111104;28;20018;-61
2021/12/07 07:39:30;;;;;;;1.77;0.70;;;22.10;37.50;;;;;;5111438;28;20020;-61
2021/12/07 07:41:56;;;;;;;1.30;0.77;;;22.20;37.50;;;;;;5110933;28;20008;-61
2021/12/07 07:44:22;;;;;;;1.20;0.90;;;22.20;37.60;;;;;;5075678;28;20039;-61
2021/12/07 07:46:48;;;;;;;1.55;0.75;;;22.20;37.50;;;;;;5110850;28;20027;-61
2021/12/07 07:49:14;;;;;;;0.95;0.70;;;22.20;37.60;;;;;;5092506;28;20035;-59
2021/12/07 07:51:40;;;;;;;1.25;0.60;;;22.20;37.50;;;;;;5075106;28;20031;-59
2021/12/07 07:54:06;;;;;;;0.80;0.65;;;22.20;37.50;;;;;;5092469;28;20040;-61
2021/12/07 07:56:31;;;;;;;2.13;0.88;;;22.20;37.50;;;;;;5092377;28;20030;-62
2021/12/07 07:58:58;;;;;;;1.38;0.70;;;22.20;37.60;;;;;;5111392;28;20020;-61
2021/12/07 08:01:24;;;;;;;1.75;0.70;;;22.30;37.60;;;;;;5110804;28;20377;-61
2021/12/07 08:03:53;;;;;;;2.00;0.65;;;22.30;37.60;;;;;;5110541;28;20094;-61
2021/12/07 08:06:22;;;;;;;0.90;0.60;;;22.30;37.60;;;;;;5112209;28;20022;-61
2021/12/07 08:08:47;;;;;;;1.20;0.73;;;22.30;37.60;;;;;;5079854;28;20035;-61
2021/12/07 08:11:14;;;;;;;1.83;0.90;;;22.30;37.60;;;;;;5096189;28;20031;-61
2021/12/07 08:13:40;;;;;;;0.50;0.50;;;22.30;37.60;;;;;;5114521;28;20015;-61
2021/12/07 08:16:15;;;;;;;1.73;0.80;;;22.40;37.60;;;;;;5096604;28;20027;-61
2021/12/07 08:18:44;;;;;;;2.78;1.10;;;22.40;37.50;;;;;;5115798;28;20008;-60
2021/12/07 08:21:10;;;;;;;12.95;1.80;;;22.30;37.00;;;;;;5096815;28;20019;-61
2021/12/07 08:23:41;;;;;;;15.23;2.47;;;22.00;36.40;;;;;;5115243;28;20016;-60
2021/12/07 08:26:08;;;;;;;12.90;2.65;;;21.80;36.30;;;;;;5115304;28;20462;-62
2021/12/07 08:28:34;;;;;;;24.10;3.53;;;21.70;36.60;;;;;;5115329;28;20094;-63
2021/12/07 08:30:59;;;;;;;17.70;4.05;;;20.80;35.50;;;;;;5115274;28;20456;-62
2021/12/07 08:33:26;;;;;;;13.50;4.30;;;20.20;34.30;;;;;;5115052;28;20028;-61
2021/12/07 08:35:54;;;;;;;13.50;4.03;;;19.30;34.90;;;;;;5115265;28;20015;-62
2021/12/07 08:38:20;;;;;;;13.40;3.83;;;18.90;35.70;;;;;;5114824;28;20131;-60
2021/12/07 08:40:46;;;;;;;11.70;3.92;;;18.30;36.60;;;;;;5114782;28;20033;-60
2021/12/07 08:43:12;;;;;;;13.35;3.90;;;17.80;37.10;;;;;;5096582;28;20557;-60
2021/12/07 08:45:43;;;;;;;11.77;3.72;;;17.80;37.70;;;;;;5095945;28;20043;-61
2021/12/07 08:48:09;;;;;;;10.38;4.00;;;17.20;38.00;;;;;;5096744;28;20369;-61
2021/12/07 08:50:35;;;;;;;9.00;3.83;;;16.90;38.80;;;;;;5114165;28;20007;-61
2021/12/07 08:53:07;;;;;;;11.30;3.75;;;16.70;38.90;;;;;;5114564;28;20028;-59
2021/12/07 09:01:02;;;;;;;13.00;4.13;;;16.20;39.90;;;;;;5114454;28;20061;-60
2021/12/07 09:03:28;;;;;;;13.50;3.58;;;16.20;39.90;;;;;;5114946;28;20445;-60
2021/12/07 09:05:54;;;;;;;15.52;4.03;;;16.40;40.10;;;;;;5115859;28;20020;-60
2021/12/07 09:08:20;;;;;;;11.18;3.05;;;16.80;39.70;;;;;;5114700;28;20043;-61
2021/12/07 09:10:46;;;;;;;10.63;3.60;;;17.20;38.80;;;;;;5096910;28;20028;-61
2021/12/07 09:13:12;;;;;;;12.57;3.72;;;17.60;38.00;;;;;;5114659;28;20024;-60
2021/12/07 09:15:42;;;;;;;11.80;3.50;;;17.90;37.40;;;;;;5114297;28;20457;-61
2021/12/07 09:18:09;;;;;;;13.57;3.83;;;18.20;36.80;;;;;;5096075;28;20050;-60
2021/12/07 09:20:34;;;;;;;8.80;3.33;;;18.40;36.30;;;;;;5114128;28;20012;-60
2021/12/07 09:23:01;;;;;;;11.80;3.42;;;18.50;35.90;;;;;;5113885;28;20016;-60
2021/12/07 09:25:26;;;;;;;11.00;3.08;;;18.60;35.60;;;;;;5078555;28;20034;-60
2021/12/07 09:27:52;;;;;;;9.38;3.83;;;18.70;35.30;;;;;;5095226;28;20027;-61
2021/12/07 09:30:18;;;;;;;9.80;3.72;;;18.80;35.30;;;;;;5113520;28;20028;-61
2021/12/07 09:32:47;;;;;;;9.20;3.55;;;18.80;35.20;;;;;;5094920;28;20481;-60
2021/12/07 09:35:15;;;;;;;7.20;3.25;;;18.90;35.20;;;;;;5094653;28;20462;-61
2021/12/07 09:37:41;;;;;;;10.32;3.45;;;19.00;35.00;;;;;;5078456;28;20031;-60
2021/12/07 09:40:09;;;;;;;10.55;3.28;;;19.10;35.00;;;;;;5113468;28;20445;-60
2021/12/07 09:42:35;;;;;;;11.10;3.30;;;19.10;34.90;;;;;;5113256;28;20012;-61
2021/12/07 09:45:01;;;;;;;11.13;3.20;;;19.20;34.80;;;;;;5077618;28;20382;-61
2021/12/07 09:47:28;;;;;;;10.88;3.08;;;19.20;34.80;;;;;;5093863;28;20422;-61
2021/12/07 09:49:54;;;;;;;9.68;3.10;;;19.20;35.30;;;;;;5077057;28;20043;-60
2021/12/07 09:52:21;;;;;;;9.85;3.17;;;19.30;34.70;;;;;;5112245;28;20047;-59
2021/12/07 09:54:47;;;;;;;9.93;3.05;;;19.30;34.60;;;;;;5076944;28;20090;-60
2021/12/07 09:57:14;;;;;;;8.80;3.20;;;19.30;34.60;;;;;;5112095;28;20066;-60
2021/12/07 09:59:40;;;;;;;9.75;3.40;;;19.40;34.70;;;;;;5093966;28;20465;-60
2021/12/07 10:02:07;;;;;;;9.65;3.00;;;19.40;34.60;;;;;;5112009;28;20019;-60
2021/12/07 10:04:33;;;;;;;7.32;2.95;;;19.40;34.50;;;;;;5094564;28;20114;-60
2021/12/07 10:07:00;;;;;;;7.28;2.83;;;19.50;34.50;;;;;;5092230;28;20139;-60
2021/12/07 10:09:26;;;;;;;7.25;3.28;;;19.50;34.60;;;;;;5113558;28;20012;-59
2021/12/07 10:11:53;;;;;;;10.18;3.40;;;19.50;34.50;;;;;;5112810;28;20023;-59
2021/12/07 10:14:19;;;;;;;7.95;2.90;;;19.00;35.10;;;;;;5113000;28;20485;-58
2021/12/07 10:16:48;;;;;;;9.98;2.72;;;17.50;39.40;;;;;;5094260;28;20137;-59
2021/12/07 10:19:31;;;;;;;12.07;3.30;;;17.00;39.90;;;;;;5094854;28;20100;-61
2021/12/07 10:22:05;;;;;;;14.57;3.60;;;15.30;41.50;;;;;;5112823;28;20091;-59
2021/12/07 10:24:38;;;;;;;10.68;3.30;;;14.80;44.50;;;;;;5112828;28;20090;-60
2021/12/07 10:27:04;;;;;;;10.85;3.28;;;14.30;45.10;;;;;;5112631;28;20114;-59
2021/12/07 10:29:30;;;;;;;12.63;4.10;;;13.60;47.00;;;;;;5076116;28;20111;-60
2021/12/07 10:32:00;;;;;;;13.90;3.72;;;13.40;47.40;;;;;;5112213;28;20058;-60
2021/12/07 10:34:31;;;;;;;12.00;3.50;;;13.10;47.10;;;;;;5111998;28;20049;-60
2021/12/07 10:37:05;;;;;;;11.27;3.63;;;12.80;49.10;;;;;;5112627;28;20478;-60
2021/12/07 10:39:51;;;;;;;14.25;3.20;;;12.60;48.90;;;;;;5111798;28;20018;-59
2021/12/07 10:42:22;;;;;;;12.27;3.50;;;12.30;50.40;;;;;;5111954;28;20050;-61
2021/12/07 10:44:48;;;;;;;11.27;3.25;;;12.20;50.90;;;;;;5093573;28;20535;-59
2021/12/07 10:47:21;;;;;;;14.02;3.63;;;11.70;51.60;;;;;;5076750;28;20060;-59
2021/12/07 10:49:51;;;;;;;15.23;3.65;;;11.80;52.90;;;;;;5111740;28;20076;-60
2021/12/07 10:52:18;;;;;;;14.85;3.28;;;12.30;51.40;;;;;;5093354;28;20102;-60
2021/12/07 10:54:52;;;;;;;11.07;3.33;;;12.00;51.10;;;;;;5111823;28;20086;-60
2021/12/07 10:57:22;;;;;;;12.63;3.00;;;12.70;50.60;;;;;;5112027;28;20008;-60
2021/12/07 10:59:54;;;;;;;12.35;2.95;;;12.90;49.90;;;;;;5094504;28;20026;-59
2021/12/07 11:02:20;;;;;;;14.75;3.35;;;12.90;49.60;;;;;;5112116;28;20015;-59
2021/12/07 11:04:46;;;;;;;9.00;2.38;;;13.50;49.50;;;;;;5112820;28;20362;-59
2021/12/07 11:07:18;;;;;;;10.45;2.85;;;14.80;47.00;;;;;;5094900;28;20032;-59
2021/12/07 11:09:57;;;;;;;13.40;2.90;;;15.80;43.80;;;;;;5113279;28;20036;-61
2021/12/07 11:12:24;;;;;;;11.05;2.95;;;16.50;42.20;;;;;;5113372;28;20100;-59
2021/12/07 11:14:58;;;;;;;9.63;3.22;;;17.00;40.80;;;;;;5113186;28;20516;-59
2021/12/07 11:17:33;;;;;;;14.15;3.30;;;17.50;39.90;;;;;;5112873;28;20146;-58
2021/12/07 11:20:00;;;;;;;9.25;2.95;;;17.60;39.10;;;;;;5094706;28;20016;-60
2021/12/07 11:22:27;;;;;;;19.10;3.25;;;17.80;38.90;;;;;;5112899;28;20019;-59
2021/12/07 11:24:54;;;;;;;7.85;2.28;;;18.20;38.40;;;;;;5112902;28;20016;-60
2021/12/07 11:30:16;;;;;;;7.97;2.78;;;18.60;37.50;;;;;;5112310;28;20019;-60
2021/12/07 11:32:47;;;;;;;7.18;2.70;;;18.80;37.20;;;;;;5112506;28;20016;-60
2021/12/07 11:35:20;;;;;;;8.35;2.47;;;18.90;36.90;;;;;;5094888;28;20023;-60
2021/12/07 11:37:46;;;;;;;6.03;2.72;;;18.90;37.10;;;;;;5094212;28;20096;-59
2021/12/07 11:40:14;;;;;;;8.27;2.72;;;19.10;36.80;;;;;;5094184;28;20494;-59
2021/12/07 11:42:42;;;;;;;8.27;3.05;;;19.20;36.60;;;;;;5116293;28;20097;-60
2021/12/07 11:45:17;;;;;;;6.40;2.55;;;19.30;36.40;;;;;;5097565;28;20045;-59
2021/12/07 11:47:51;;;;;;;6.88;2.72;;;19.40;36.20;;;;;;5115547;28;20022;-60
2021/12/07 11:50:24;;;;;;;11.75;3.00;;;19.50;36.20;;;;;;5115576;28;20059;-63
2021/12/07 11:53:06;;;;;;;15.10;3.50;;;19.00;37.00;;;;;;5096902;28;20026;-60
2021/12/07 11:55:32;;;;;;;12.90;3.10;;;18.90;39.60;;;;;;5097929;28;20036;-61
2021/12/07 11:57:58;;;;;;;8.90;3.55;;;18.60;40.00;;;;;;5097944;28;20019;-61
2021/12/07 12:00:26;;;;;;;13.75;3.30;;;18.10;40.80;;;;;;5116379;28;20012;-61
2021/12/07 12:02:53;;;;;;;12.65;3.42;;;18.00;41.70;;;;;;5116679;28;20023;-61
2021/12/07 12:05:19;;;;;;;11.23;3.10;;;17.40;43.00;;;;;;5116289;28;20095;-60
2021/12/07 12:07:46;;;;;;;7.55;3.10;;;16.70;44.20;;;;;;5115331;28;20047;-63
2021/12/07 12:10:13;;;;;;;9.15;3.30;;;17.20;43.50;;;;;;5115081;28;20530;-61
2021/12/07 12:12:53;;;;;;;10.35;3.08;;;17.80;43.50;;;;;;5115327;28;20024;-62
2021/12/07 12:15:37;;;;;;;19.05;3.15;;;18.50;42.70;;;;;;5097121;28;20043;-61
2021/12/07 12:18:13;;;;;;;13.23;3.20;;;19.10;42.40;;;;;;5115565;28;20018;-61
2021/12/07 12:20:58;;;;;;;12.75;3.60;;;19.60;41.90;;;;;;5097028;28;20016;-62
2021/12/07 12:23:32;;;;;;;12.82;3.03;;;19.50;41.40;;;;;;5114897;28;20079;-61
2021/12/07 12:26:06;;;;;;;8.35;2.75;;;19.80;42.00;;;;;;5115271;28;20011;-60
2021/12/07 12:28:35;;;;;;;7.47;3.10;;;19.70;40.70;;;;;;5079765;28;20019;-61
2021/12/07 12:31:00;;;;;;;13.70;3.72;;;20.10;41.70;;;;;;5097157;28;20486;-61
2021/12/07 12:33:29;;;;;;;12.27;3.13;;;20.30;41.50;;;;;;5114674;28;20035;-60
2021/12/07 12:35:58;;;;;;;9.98;2.88;;;20.60;41.50;;;;;;5081100;28;20015;-61
2021/12/07 12:38:31;;;;;;;9.70;2.47;;;20.80;41.30;;;;;;5095869;28;20027;-61
2021/12/07 12:41:02;;;;;;;12.88;3.20;;;20.90;40.80;;;;;;5114175;28;20114;-61
2021/12/07 12:43:53;;;;;;;16.27;3.75;;;20.40;40.40;;;;;;5095911;28;20023;-61
2021/12/07 12:46:29;;;;;;;15.20;3.13;;;19.70;40.40;;;;;;5114448;28;20186;-60
2021/12/07 12:48:57;;;;;;;13.85;3.25;;;19.60;41.70;;;;;;5097441;28;20023;-61
2021/12/07 12:51:26;;;;;;;10.35;2.92;;;20.00;41.80;;;;;;5114035;28;20030;-59
2021/12/07 12:53:53;;;;;;;13.38;3.00;;;20.40;41.60;;;;;;5114568;28;20088;-62
2021/12/07 12:56:30;;;;;;;20.75;3.67;;;19.20;38.50;;;;;;5114734;28;20014;-61
2021/12/07 12:58:57;;;;;;;11.52;2.97;;;18.30;41.40;;;;;;5114377;28;20019;-62
2021/12/07 13:01:28;;;;;;;7.93;2.90;;;17.90;43.30;;;;;;5095835;28;20012;-60
2021/12/07 13:04:06;;;;;;;10.50;2.90;;;18.00;43.10;;;;;;5114296;28;20028;-60
2021/12/07 13:06:31;;;;;;;14.15;3.17;;;17.90;43.40;;;;;;5114632;28;20351;-61
2021/12/07 13:08:58;;;;;;;10.98;2.88;;;17.60;42.70;;;;;;5114181;28;20494;-61
2021/12/07 13:11:59;;;;;;;7.45;2.70;;;17.90;42.80;;;;;;5114409;28;20018;-61
2021/12/07 13:14:52;;;;;;;6.97;2.60;;;18.70;41.70;;;;;;5081631;28;20047;-59
2021/12/07 13:17:23;;;;;;;8.82;2.58;;;19.10;40.80;;;;;;5113705;28;20008;-61
2021/12/07 13:20:11;;;;;;;8.27;3.08;;;19.20;40.70;;;;;;5095799;28;20012;-61
2021/12/07 13:22:43;;;;;;;11.23;3.22;;;19.30;39.80;;;;;;5114084;28;20091;-60
2021/12/07 13:25:20;;;;;;;9.77;2.97;;;19.50;40.20;;;;;;5113775;28;20462;-61
2021/12/07 13:28:22;;;;;;;9.38;2.50;;;19.80;40.40;;;;;;5114105;28;20024;-60
2021/12/07 13:31:00;;;;;;;6.72;2.22;;;20.30;40.20;;;;;;5095066;28;20015;-60
2021/12/07 13:33:30;;;;;;;10.82;2.95;;;19.60;40.40;;;;;;5096421;28;20378;-59
2021/12/07 13:35:56;;;;;;;16.30;3.50;;;19.70;39.30;;;;;;5096244;28;20435;-60
2021/12/07 13:38:29;;;;;;;10.02;2.97;;;19.80;38.90;;;;;;5095620;28;20094;-61
2021/12/07 13:41:14;;;;;;;16.10;3.20;;;20.10;38.90;;;;;;5114418;28;20011;-60
2021/12/07 13:43:45;;;;;;;9.63;2.90;;;20.40;38.60;;;;;;5114232;28;20054;-60
2021/12/07 13:46:25;;;;;;;14.98;3.25;;;20.40;38.90;;;;;;5095262;28;20038;-61
2021/12/07 13:49:01;;;;;;;10.00;3.10;;;20.60;38.70;;;;;;5113769;28;20057;-60
2021/12/07 13:51:27;;;;;;;8.05;2.63;;;20.70;38.50;;;;;;5113191;28;20096;-60
2021/12/07 13:53:53;;;;;;;12.23;2.95;;;20.90;38.40;;;;;;5094996;28;20015;-60
2021/12/07 13:56:22;;;;;;;10.23;2.97;;;21.00;38.40;;;;;;5113353;28;20089;-59
2021/12/07 13:59:02;;;;;;;10.88;2.63;;;21.10;38.20;;;;;;5077977;28;20043;-60
2021/12/07 14:01:29;;;;;;;7.07;2.70;;;21.20;38.20;;;;;;5094351;28;20022;-61
2021/12/07 14:03:56;;;;;;;7.90;2.92;;;21.30;38.20;;;;;;5094281;28;20098;-60
2021/12/07 14:06:23;;;;;;;9.48;3.05;;;21.30;38.20;;;;;;5112831;28;20497;-61
2021/12/07 14:08:50;;;;;;;8.70;2.78;;;21.20;38.30;;;;;;5112567;28;20497;-61
2021/12/07 14:11:17;;;;;;;9.95;2.78;;;21.40;38.30;;;;;;5112734;28;20080;-63
2021/12/07 14:13:48;;;;;;;8.27;2.45;;;21.50;37.90;;;;;;5113308;28;20028;-60
2021/12/07 14:16:16;;;;;;;10.77;2.95;;;21.60;38.10;;;;;;5112490;28;20020;-60
2021/12/07 14:18:46;;;;;;;12.48;2.22;;;21.70;37.60;;;;;;5112888;28;20097;-60
2021/12/07 14:21:12;;;;;;;7.63;2.65;;;21.80;37.20;;;;;;5113569;28;20042;-61
2021/12/07 14:23:43;;;;;;;13.07;2.72;;;21.80;37.30;;;;;;5113308;28;20011;-61
2021/12/07 14:26:11;;;;;;;8.85;2.38;;;21.80;37.20;;;;;;5095207;28;20011;-62
2021/12/07 14:28:44;;;;;;;9.65;2.58;;;21.90;37.20;;;;;;5094989;28;20482;-61